Time;durP1;ratioP1;P1;durP2;ratioP2;P2;SDS_P1;SDS_P2;PMS_P1;PMS_P2;Temp;Humidity;BMP_temperature;BMP_pressure;BME280_temperature;BME280_humidity;BME280_pressure;Samples;Min_cycle;Max_cycle;Signal;HPM_P1;HPM_P2
2023/03/07 07:43:19;;;;;;;16.13;6.57;;;;;;;1.87;70.44;95184.34;2091278;27;20898;-59
2023/03/07 07:45:53;;;;;;;19.42;8.20;;;;;;;2.03;69.68;95177.78;2090989;28;20587;-59
2023/03/07 07:46:55;;;;;;;20.65;9.05;;;;;;;2.21;69.44;95199.47;2087506;28;20295;-59
2023/03/07 07:47:56;;;;;;;21.15;9.25;;;;;;;2.25;69.61;95192.50;2082560;28;20289;-59
2023/03/07 07:48:58;;;;;;;16.30;8.05;;;;;;;2.41;68.89;95198.78;2086584;28;20668;-59
2023/03/07 07:49:59;;;;;;;19.60;8.73;;;;;;;2.56;68.30;95191.38;2086618;28;20686;-59
2023/03/07 07:51:01;;;;;;;17.33;8.05;;;;;;;2.82;67.87;95189.56;2085022;28;20339;-59
2023/03/07 07:52:03;;;;;;;16.15;8.00;;;;;;;3.02;66.76;95186.25;2080445;28;20212;-59
2023/03/07 07:53:04;;;;;;;15.70;8.85;;;;;;;3.09;66.10;95188.53;2074438;28;20225;-59
2023/03/07 07:54:07;;;;;;;17.85;7.68;;;;;;;3.16;66.10;95186.59;2074315;28;20656;-59
2023/03/07 07:55:09;;;;;;;15.45;7.57;;;;;;;3.38;65.32;95190.91;2077499;28;20205;-59
2023/03/07 07:56:11;;;;;;;15.57;7.68;;;;;;;3.23;64.24;95174.28;2077438;28;20221;-59
2023/03/07 07:57:12;;;;;;;24.00;10.40;;;;;;;3.38;64.51;95186.56;2075379;28;20237;-59
2023/03/07 07:58:13;;;;;;;23.15;11.95;;;;;;;3.43;63.92;95182.06;2078201;28;20201;-59
2023/03/07 07:59:15;;;;;;;20.45;9.52;;;;;;;3.51;63.46;95170.59;2078367;28;20228;-59
2023/03/07 08:00:20;;;;;;;20.80;7.47;;;;;;;3.51;63.00;95175.75;2074187;28;20652;-60
2023/03/07 08:01:23;;;;;;;11.60;6.60;;;;;;;3.55;63.02;95172.97;2075529;28;20667;-60
2023/03/07 08:02:24;;;;;;;11.02;6.03;;;;;;;3.64;62.67;95168.34;2073504;28;20223;-60
2023/03/07 08:03:26;;;;;;;11.70;7.50;;;;;;;3.82;62.60;95175.34;2077028;28;20201;-60
2023/03/07 08:04:28;;;;;;;11.27;6.60;;;;;;;4.03;62.18;95168.44;2076620;28;20303;-60
2023/03/07 08:05:29;;;;;;;12.18;6.32;;;;;;;4.24;61.18;95174.44;2074525;28;20794;-60
2023/03/07 08:06:31;;;;;;;9.40;6.35;;;;;;;3.91;60.82;95166.34;2074598;28;20209;-60
2023/03/07 08:07:32;;;;;;;13.90;7.30;;;;;;;3.80;61.05;95166.00;2074862;28;20217;-60
2023/03/07 08:08:34;;;;;;;11.10;6.78;;;;;;;3.93;61.38;95183.47;2076308;28;20197;-60
2023/03/07 08:09:37;;;;;;;15.40;8.20;;;;;;;3.98;61.15;95179.88;2075070;28;20213;-60
2023/03/07 08:10:41;;;;;;;14.40;7.20;;;;;;;4.05;61.25;95181.28;2075815;28;20193;-60
2023/03/07 08:11:43;;;;;;;12.55;6.75;;;;;;;4.09;60.94;95160.44;2075113;28;20208;-60
2023/03/07 08:12:50;;;;;;;19.38;8.90;;;;;;;4.14;61.20;95177.47;2075638;28;20221;-60
2023/03/07 08:13:52;;;;;;;13.07;7.00;;;;;;;4.05;61.48;95170.94;2076459;28;20211;-60
2023/03/07 08:14:53;;;;;;;13.40;6.80;;;;;;;4.12;61.26;95189.63;2075420;28;20197;-60
2023/03/07 08:15:55;;;;;;;11.90;6.10;;;;;;;3.99;61.46;95176.41;2075926;28;20221;-60
2023/03/07 08:16:56;;;;;;;14.18;6.97;;;;;;;4.16;61.36;95175.66;2074931;28;20717;-60
2023/03/07 08:17:57;;;;;;;16.38;7.68;;;;;;;3.98;60.88;95177.28;2069417;28;20232;-61
2023/03/07 08:18:59;;;;;;;11.20;6.45;;;;;;;3.88;61.68;95174.25;2076178;28;20243;-60
2023/03/07 08:20:07;;;;;;;14.23;7.10;;;;;;;3.79;61.56;95180.63;2076225;28;20296;-60
2023/03/07 08:21:08;;;;;;;12.32;6.22;;;;;;;3.67;60.67;95171.66;2074604;28;20683;-60
2023/03/07 08:22:10;;;;;;;14.60;7.88;;;;;;;3.63;61.61;95177.00;2074406;28;20201;-61
2023/03/07 08:23:11;;;;;;;14.00;7.45;;;;;;;3.73;61.44;95175.72;2075321;28;20212;-60
2023/03/07 08:24:13;;;;;;;17.65;6.78;;;;;;;3.82;62.25;95167.59;2075741;28;20229;-60
2023/03/07 08:25:21;;;;;;;13.10;6.97;;;;;;;3.93;61.85;95170.56;2076007;28;20229;-60
2023/03/07 08:26:23;;;;;;;12.35;6.90;;;;;;;4.11;60.97;95162.94;2075870;28;20208;-61
2023/03/07 08:27:26;;;;;;;16.50;6.85;;;;;;;4.03;61.26;95172.78;2075330;28;20229;-60
2023/03/07 08:28:28;;;;;;;14.50;7.50;;;;;;;3.93;62.29;95182.63;2074522;28;20193;-60
2023/03/07 08:29:29;;;;;;;14.98;7.35;;;;;;;3.85;62.61;95170.06;2076366;28;20193;-60
2023/03/07 08:30:33;;;;;;;14.82;7.95;;;;;;;3.67;63.19;95163.06;2075514;28;20264;-60
2023/03/07 08:31:35;;;;;;;13.18;7.43;;;;;;;3.81;62.98;95160.75;2074760;28;20200;-61
2023/03/07 08:32:36;;;;;;;14.38;7.90;;;;;;;3.91;63.40;95169.81;2075277;28;21220;-61
2023/03/07 08:33:38;;;;;;;20.48;7.85;;;;;;;3.74;62.67;95162.72;2075636;28;20204;-60
2023/03/07 08:34:40;;;;;;;14.38;7.53;;;;;;;3.75;62.93;95169.59;2075905;28;20251;-60
2023/03/07 08:35:41;;;;;;;14.10;7.93;;;;;;;3.45;63.79;95163.94;2075873;28;20281;-60
2023/03/07 08:36:43;;;;;;;16.10;8.68;;;;;;;3.25;64.02;95159.56;2075866;28;20205;-61
2023/03/07 08:37:47;;;;;;;20.95;7.68;;;;;;;3.28;64.77;95172.34;2080611;28;20221;-60
2023/03/07 08:38:50;;;;;;;18.83;8.60;;;;;;;3.23;64.95;95166.53;2081329;28;20196;-60
2023/03/07 08:39:52;;;;;;;20.13;8.73;;;;;;;3.14;64.98;95159.16;2076568;28;20649;-60
2023/03/07 08:40:53;;;;;;;15.07;7.38;;;;;;;3.08;64.39;95166.22;2075691;28;20205;-60
2023/03/07 08:41:55;;;;;;;13.52;6.43;;;;;;;2.92;63.05;95165.13;2075941;28;20194;-60
2023/03/07 08:42:58;;;;;;;13.45;7.18;;;;;;;2.90;63.17;95167.75;2076544;28;20745;-60
2023/03/07 08:43:59;;;;;;;20.63;11.40;;;;;;;2.79;62.85;95157.00;2077800;28;20288;-66
2023/03/07 09:04:41;;;;;;;12.60;4.85;;;;;;;2.45;63.39;95156.53;2095759;27;20554;-62
2023/03/07 09:05:43;;;;;;;14.20;6.97;;;;;;;2.43;63.14;95136.88;2090787;28;20196;-62
2023/03/07 09:08:43;;;;;;;13.15;6.25;;;;;;;2.55;63.14;95159.63;2083336;28;20552;-61
2023/03/07 09:09:44;;;;;;;16.52;6.75;;;;;;;2.66;62.49;95166.94;2080417;28;20193;-62
2023/03/07 09:10:46;;;;;;;12.85;5.38;;;;;;;2.68;62.75;95164.31;2079025;28;20287;-62
2023/03/07 09:13:49;;;;;;;12.40;6.97;;;;;;;2.45;62.73;95135.94;2082424;28;21274;-62
2023/03/07 09:17:08;;;;;;;12.18;5.78;;;;;;;2.56;62.55;95156.13;2083578;28;20881;-61
2023/03/07 09:20:15;;;;;;;9.35;5.38;;;;;;;2.58;62.25;95153.53;2101861;27;20554;-62
2023/03/07 12:02:19;;;;;;;10.20;5.50;;;;;;;2.66;56.87;95055.28;2106729;27;20582;-62
2023/03/07 12:03:23;;;;;;;9.10;4.70;;;;;;;2.87;57.10;95053.59;2089478;28;20221;-62
2023/03/07 12:04:33;;;;;;;12.82;4.65;;;;;;;2.88;56.58;95037.22;2089663;28;20193;-62
2023/03/07 12:05:50;;;;;;;10.70;4.22;;;;;;;3.02;56.52;95050.41;2091511;28;20204;-62
2023/03/07 12:07:26;;;;;;;11.40;5.47;;;;;;;3.14;56.27;95040.50;2091464;28;20200;-63
2023/03/07 12:08:40;;;;;;;13.32;4.80;;;;;;;3.26;55.88;95055.47;2090422;28;20208;-62
2023/03/07 12:10:02;;;;;;;10.48;4.72;;;;;;;3.28;55.45;95043.34;2087243;28;20255;-62
2023/03/07 12:11:29;;;;;;;9.75;3.55;;;;;;;3.24;55.76;95039.22;2091096;28;20278;-62
2023/03/07 12:12:55;;;;;;;7.13;4.03;;;;;;;3.29;55.24;95036.44;2086585;28;20717;-61
2023/03/07 12:14:42;;;;;;;9.13;4.78;;;;;;;3.36;55.11;95032.69;2088977;28;20201;-62
2023/03/07 12:16:04;;;;;;;13.63;4.63;;;;;;;3.36;55.20;95037.88;2068658;28;20230;-61
2023/03/07 12:17:12;;;;;;;10.40;4.40;;;;;;;3.35;55.08;95049.09;2089106;28;20243;-61
2023/03/07 12:18:34;;;;;;;10.75;4.88;;;;;;;3.36;54.93;95043.03;2090295;28;20200;-62
2023/03/07 12:19:54;;;;;;;10.40;4.78;;;;;;;3.36;54.51;95033.53;2090318;28;20211;-62
2023/03/07 12:20:58;;;;;;;12.07;5.18;;;;;;;3.43;55.25;95042.69;2096477;28;20199;-62
2023/03/07 12:22:30;;;;;;;8.25;4.30;;;;;;;3.37;55.05;95027.47;2093753;28;20224;-62
2023/03/07 12:23:41;;;;;;;8.55;4.65;;;;;;;3.36;54.77;95024.97;2090384;28;20224;-61
2023/03/07 12:24:57;;;;;;;9.25;4.20;;;;;;;3.41;54.81;95017.84;2088329;28;20200;-61
2023/03/07 12:26:05;;;;;;;8.45;4.47;;;;;;;3.35;54.55;95003.50;2090873;28;20200;-61
2023/03/07 12:27:16;;;;;;;7.70;4.45;;;;;;;3.39;54.78;95020.50;2089478;28;20196;-60
2023/03/07 12:28:22;;;;;;;8.48;4.28;;;;;;;3.48;54.53;95028.75;2090510;28;20199;-60
2023/03/07 12:29:36;;;;;;;10.95;5.05;;;;;;;3.51;54.83;95015.75;2090390;28;20565;-61
2023/03/07 12:30:55;;;;;;;9.60;4.78;;;;;;;3.63;54.80;94996.28;2089187;28;20223;-60
2023/03/07 12:32:02;;;;;;;10.02;5.43;;;;;;;3.71;54.28;95000.22;2090485;28;20710;-60
2023/03/07 12:33:05;;;;;;;9.52;5.20;;;;;;;3.63;54.51;95001.44;2087048;28;20196;-61
2023/03/07 12:34:09;;;;;;;10.93;4.68;;;;;;;3.72;54.24;95007.06;2087540;28;20331;-60
2023/03/07 12:35:31;;;;;;;6.75;3.65;;;;;;;3.84;53.95;94997.94;2089641;28;20192;-60
2023/03/07 12:36:41;;;;;;;9.88;5.00;;;;;;;3.72;54.02;94986.41;2089607;28;20200;-60
2023/03/07 12:37:51;;;;;;;8.20;4.70;;;;;;;3.90;53.79;95002.00;2090744;28;20220;-60
2023/03/07 12:39:21;;;;;;;9.02;4.18;;;;;;;4.06;53.50;95008.16;2089818;28;20211;-60
2023/03/07 12:40:31;;;;;;;6.65;3.65;;;;;;;3.99;53.74;94986.06;2090248;28;20325;-60
2023/03/07 12:41:59;;;;;;;8.10;4.30;;;;;;;3.99;53.79;94985.25;2090848;28;20234;-61
2023/03/07 12:43:18;;;;;;;12.27;5.07;;;;;;;3.96;53.50;94982.78;2086869;28;20229;-61
2023/03/07 12:44:30;;;;;;;10.88;4.18;;;;;;;3.81;53.43;94973.97;2087000;28;20203;-61
2023/03/07 12:45:43;;;;;;;11.40;5.30;;;;;;;4.15;53.41;94986.22;2090012;28;20238;-61
2023/03/07 12:46:53;;;;;;;8.88;3.88;;;;;;;4.27;52.96;94979.66;2088538;28;20262;-61
2023/03/07 12:48:21;;;;;;;11.93;4.10;;;;;;;4.27;52.83;94974.47;2092327;28;20219;-60
2023/03/07 12:49:51;;;;;;;8.18;3.85;;;;;;;4.24;52.50;94966.84;2094210;28;20246;-59
2023/03/07 12:51:03;;;;;;;8.18;4.50;;;;;;;4.30;52.55;94963.16;2068859;28;20213;-60
2023/03/07 12:52:13;;;;;;;8.10;4.50;;;;;;;4.30;52.43;94966.56;2089369;28;20192;-60
2023/03/07 12:53:36;;;;;;;8.05;4.13;;;;;;;4.15;52.58;94955.22;2088975;28;20212;-60
2023/03/07 12:54:43;;;;;;;8.20;4.65;;;;;;;4.31;52.48;94954.50;2089041;28;20196;-59
2023/03/07 12:55:49;;;;;;;7.72;4.03;;;;;;;4.28;52.50;94958.06;2090521;28;20204;-60
2023/03/07 12:57:07;;;;;;;11.25;4.35;;;;;;;4.29;52.39;94959.75;2090322;28;20283;-60
2023/03/07 12:58:31;;;;;;;7.30;4.13;;;;;;;4.36;52.79;94948.19;2091064;28;20242;-60
2023/03/07 12:59:35;;;;;;;7.47;3.70;;;;;;;4.19;53.21;94955.91;2098707;28;20200;-60
2023/03/07 13:00:42;;;;;;;9.27;4.05;;;;;;;4.14;53.01;94952.69;2096414;28;20195;-60
2023/03/07 13:02:10;;;;;;;10.95;4.97;;;;;;;4.15;53.14;94959.53;2092216;28;20434;-60
2023/03/07 13:04:22;;;;;;;5.38;3.40;;;;;;;3.96;52.78;94955.25;2090391;28;20579;-59
2023/03/07 13:05:24;;;;;;;7.47;3.95;;;;;;;3.88;52.78;94954.72;2091715;28;20204;-59
2023/03/07 13:06:26;;;;;;;6.30;3.45;;;;;;;3.72;52.85;94933.91;2090304;28;20668;-60
2023/03/07 13:07:33;;;;;;;5.20;3.60;;;;;;;3.93;52.97;94963.09;2083201;28;20232;-60
2023/03/07 13:08:35;;;;;;;11.95;3.60;;;;;;;4.00;52.75;94966.25;2081010;28;20204;-60
2023/03/07 13:09:42;;;;;;;10.80;3.92;;;;;;;3.89;53.00;94961.56;2081742;28;20239;-59
2023/03/07 13:10:45;;;;;;;7.65;4.13;;;;;;;3.99;53.16;94965.41;2082451;28;20196;-60
2023/03/07 13:12:28;;;;;;;7.65;3.60;;;;;;;3.87;53.02;94955.63;2082822;28;20197;-60
2023/03/07 13:15:11;;;;;;;9.13;4.22;;;;;;;3.92;53.16;94962.28;2115152;27;20577;-60
2023/03/07 13:17:34;;;;;;;7.07;3.58;;;;;;;3.89;53.80;94953.81;2082939;28;20569;-60
2023/03/07 13:20:01;;;;;;;7.72;3.45;;;;;;;3.81;53.55;94958.47;2084200;28;20572;-60
2023/03/07 13:22:33;;;;;;;8.10;4.47;;;;;;;3.71;53.82;94971.81;2084112;28;20578;-59
2023/03/07 13:25:34;;;;;;;8.57;3.38;;;;;;;3.68;53.75;94959.06;2083625;28;20578;-60
2023/03/07 13:28:30;;;;;;;6.00;3.10;;;;;;;3.73;54.10;94967.44;2083354;28;20557;-61
2023/03/07 13:30:06;;;;;;;48.85;19.42;;;;;;;3.74;53.88;94966.50;2071534;28;20534;-59
2023/03/07 13:31:15;;;;;;;8.32;3.70;;;;;;;3.87;54.46;94964.22;2073712;28;20193;-60
2023/03/07 13:32:50;;;;;;;8.40;4.30;;;;;;;3.83;53.88;94960.09;2073310;28;20231;-60
2023/03/07 13:33:52;;;;;;;6.35;4.13;;;;;;;3.85;54.29;94965.22;2072327;28;20243;-60
2023/03/07 13:34:53;;;;;;;8.05;3.42;;;;;;;3.86;54.44;94966.84;2067883;28;20305;-60
2023/03/07 13:35:57;;;;;;;11.32;3.70;;;;;;;3.86;54.14;94959.97;2067137;28;20315;-60
2023/03/07 13:37:39;;;;;;;6.82;3.95;;;;;;;3.80;53.67;94956.84;2066897;28;20198;-60
2023/03/07 13:38:43;;;;;;;7.15;3.85;;;;;;;3.87;54.13;94958.22;2063315;28;20211;-60
2023/03/07 13:40:01;;;;;;;7.25;3.38;;;;;;;3.81;53.90;94958.47;2070140;28;20233;-60
2023/03/07 13:41:04;;;;;;;4.82;2.85;;;;;;;3.87;53.87;94964.22;2070986;28;20200;-60
2023/03/07 13:42:45;;;;;;;7.25;3.28;;;;;;;3.78;53.92;94956.88;2069940;28;20201;-60
2023/03/07 13:43:46;;;;;;;6.05;3.45;;;;;;;3.84;53.98;94956.59;2067477;28;20257;-60
2023/03/07 13:44:47;;;;;;;5.30;2.95;;;;;;;3.86;53.65;94961.69;2069439;28;20201;-60
2023/03/07 13:46:24;;;;;;;6.30;3.70;;;;;;;3.84;53.87;94964.34;2071305;28;20209;-60
2023/03/07 13:47:42;;;;;;;8.30;3.92;;;;;;;3.85;54.14;94963.44;2068133;28;20802;-60
2023/03/07 13:48:46;;;;;;;11.57;3.88;;;;;;;3.89;53.93;94957.22;2067194;28;20209;-60
2023/03/07 13:49:47;;;;;;;6.90;3.53;;;;;;;3.86;53.88;94956.53;2069066;28;20201;-60
2023/03/07 13:50:49;;;;;;;5.25;3.60;;;;;;;3.95;54.32;94966.47;2067665;28;20205;-60
2023/03/07 13:52:21;;;;;;;5.45;3.25;;;;;;;3.91;53.96;94962.31;2068785;28;20236;-59
2023/03/07 13:53:49;;;;;;;8.48;3.05;;;;;;;3.92;53.79;94961.44;2068109;28;20213;-60
2023/03/07 13:54:51;;;;;;;6.20;3.20;;;;;;;3.91;53.46;94958.00;2070936;28;20280;-60
2023/03/07 13:55:58;;;;;;;8.63;3.20;;;;;;;3.93;53.45;94966.50;2088524;28;20787;-60
2023/03/07 13:57:00;;;;;;;5.82;3.83;;;;;;;3.95;53.74;94973.34;2082699;28;20275;-60
2023/03/07 13:58:14;;;;;;;7.38;3.78;;;;;;;4.12;54.19;94963.09;2070986;28;20204;-60
2023/03/07 13:59:20;;;;;;;8.35;4.55;;;;;;;4.22;53.44;94966.94;2068316;28;20861;-60
2023/03/07 14:00:25;;;;;;;7.40;3.33;;;;;;;4.08;53.43;94964.97;2067370;28;20229;-60
2023/03/07 14:01:37;;;;;;;5.57;3.05;;;;;;;4.07;53.44;94971.06;2065009;28;20657;-60
2023/03/07 14:02:40;;;;;;;8.73;3.65;;;;;;;4.18;53.37;94974.91;2066703;28;20238;-60
2023/03/07 14:03:48;;;;;;;7.45;3.65;;;;;;;4.77;52.96;94983.31;2068356;28;20281;-60
2023/03/07 14:04:54;;;;;;;6.82;3.03;;;;;;;5.12;51.36;94979.94;2068889;28;20629;-60
2023/03/07 14:06:00;;;;;;;8.32;3.90;;;;;;;5.43;51.34;94968.88;2068378;28;20197;-60
2023/03/07 14:07:10;;;;;;;8.10;3.15;;;;;;;5.65;50.10;94972.94;2071100;28;20675;-60
2023/03/07 14:08:13;;;;;;;6.13;3.65;;;;;;;5.67;50.32;94966.75;2072071;28;20241;-60
2023/03/07 14:09:22;;;;;;;6.55;3.70;;;;;;;5.90;49.56;94964.72;2071368;28;20205;-60
2023/03/07 14:10:29;;;;;;;5.97;3.38;;;;;;;6.42;48.79;94975.84;2072248;28;20193;-60
2023/03/07 14:11:38;;;;;;;7.15;3.80;;;;;;;6.49;48.60;94962.44;2069259;28;20226;-60
2023/03/07 14:13:03;;;;;;;5.30;3.38;;;;;;;6.41;47.87;94976.75;2069544;28;20259;-60
2023/03/07 14:14:05;;;;;;;9.00;4.63;;;;;;;6.46;48.22;94972.16;2064798;28;20202;-60
2023/03/07 14:15:31;;;;;;;7.97;4.15;;;;;;;6.27;47.91;94977.50;2066418;28;20209;-60
2023/03/07 14:16:46;;;;;;;3.78;2.45;;;;;;;6.05;48.46;94976.06;2068401;28;20199;-60
2023/03/07 14:18:00;;;;;;;10.10;3.58;;;;;;;6.29;48.63;94979.09;2067949;28;20241;-60
2023/03/07 14:19:24;;;;;;;13.85;4.07;;;;;;;6.41;48.28;94990.53;2070501;28;20809;-60
2023/03/07 14:20:44;;;;;;;6.72;3.50;;;;;;;6.38;48.36;94985.53;2071328;28;20237;-60
2023/03/07 14:22:11;;;;;;;6.82;4.00;;;;;;;6.35;48.16;94978.75;2069205;28;20198;-60
2023/03/07 14:23:46;;;;;;;5.32;2.90;;;;;;;6.06;47.97;94967.38;2071596;28;20252;-60
2023/03/07 14:24:56;;;;;;;7.35;3.60;;;;;;;5.78;48.59;94997.31;2070635;28;20206;-60
2023/03/07 14:26:11;;;;;;;4.55;3.15;;;;;;;6.28;48.41;94986.97;2066849;28;20218;-60
2023/03/07 14:27:14;;;;;;;5.65;2.88;;;;;;;6.10;47.70;94992.22;2080936;28;20197;-60
2023/03/07 14:28:22;;;;;;;8.93;3.85;;;;;;;6.38;48.49;94985.53;2082137;28;20256;-60
2023/03/07 14:29:26;;;;;;;6.63;4.20;;;;;;;6.42;48.29;94976.66;2067953;28;20205;-58
2023/03/07 14:30:36;;;;;;;5.60;3.13;;;;;;;5.98;48.69;94987.63;2069611;28;20259;-58
2023/03/07 14:31:40;;;;;;;9.68;3.78;;;;;;;5.87;49.03;94989.03;2072058;28;20198;-58
2023/03/07 14:32:41;;;;;;;9.27;4.60;;;;;;;5.81;49.48;94981.59;2069643;28;20226;-58
2023/03/07 14:33:43;;;;;;;7.35;3.80;;;;;;;6.24;48.87;94982.88;2069462;28;20620;-58
2023/03/07 14:34:52;;;;;;;7.88;3.53;;;;;;;6.54;48.12;94977.75;2068092;28;20202;-58
2023/03/07 14:35:53;;;;;;;6.68;3.88;;;;;;;6.76;47.53;94981.75;2067210;28;20541;-58
2023/03/07 14:36:58;;;;;;;9.30;3.80;;;;;;;6.57;47.96;94977.59;2068398;28;20232;-58
2023/03/07 14:37:59;;;;;;;7.55;4.07;;;;;;;6.82;47.91;94986.59;2068809;28;20234;-58
2023/03/07 14:39:01;;;;;;;7.60;4.15;;;;;;;7.13;47.02;94984.84;2065283;28;20195;-58
2023/03/07 14:40:27;;;;;;;5.97;3.95;;;;;;;6.77;47.25;94981.66;2061089;28;20202;-58
2023/03/07 14:42:06;;;;;;;8.48;4.15;;;;;;;7.26;47.37;94983.22;2061691;28;20225;-58
2023/03/07 14:43:33;;;;;;;7.88;4.65;;;;;;;6.80;47.39;94984.06;2063301;28;20230;-58
2023/03/07 14:45:00;;;;;;;6.05;3.67;;;;;;;7.01;47.24;94978.63;2064111;28;20210;-58
2023/03/07 14:46:21;;;;;;;6.05;3.97;;;;;;;7.72;46.36;94978.84;2064492;28;20202;-58
2023/03/07 14:47:48;;;;;;;7.95;3.30;;;;;;;7.15;46.45;94985.63;2064476;28;20605;-58
2023/03/07 14:49:12;;;;;;;6.20;3.20;;;;;;;6.80;47.40;94975.47;2064570;28;20210;-59
2023/03/07 14:50:20;;;;;;;8.10;3.90;;;;;;;6.33;47.83;94980.59;2064381;28;20902;-58
2023/03/07 14:51:25;;;;;;;11.02;3.80;;;;;;;5.94;49.13;94971.44;2065807;28;20209;-58
2023/03/07 14:52:29;;;;;;;5.47;3.70;;;;;;;5.85;49.86;94983.13;2063053;28;20229;-58
2023/03/07 14:53:33;;;;;;;10.52;3.70;;;;;;;5.71;49.93;94978.66;2061328;28;20689;-58
2023/03/07 14:54:36;;;;;;;6.20;3.97;;;;;;;5.46;50.61;94973.91;2060763;28;20282;-58
2023/03/07 14:55:40;;;;;;;7.35;3.65;;;;;;;5.36;51.07;94972.72;2064785;28;20238;-58
2023/03/07 14:56:41;;;;;;;8.38;3.85;;;;;;;5.32;50.85;94978.94;2065464;28;20193;-58
2023/03/07 14:57:48;;;;;;;13.48;4.70;;;;;;;5.22;51.61;94979.41;2063640;28;20254;-58
2023/03/07 14:58:53;;;;;;;7.03;3.80;;;;;;;5.09;51.58;94962.78;2061488;28;20202;-58
2023/03/07 15:00:13;;;;;;;8.13;3.65;;;;;;;4.94;51.98;94976.50;2063203;28;20629;-58
2023/03/07 15:01:18;;;;;;;7.10;4.25;;;;;;;4.98;51.91;94973.69;2055611;28;20211;-58
2023/03/07 15:02:19;;;;;;;9.23;4.68;;;;;;;5.13;51.76;94981.59;2055321;28;20601;-58
2023/03/07 15:03:21;;;;;;;6.00;3.80;;;;;;;5.15;51.99;94980.59;2065940;28;20209;-58
2023/03/07 15:04:22;;;;;;;8.65;4.80;;;;;;;5.57;51.49;94978.53;2063718;28;20685;-58
2023/03/07 15:05:28;;;;;;;8.73;3.97;;;;;;;6.14;50.33;94956.59;2064621;28;20322;-58
2023/03/07 15:06:30;;;;;;;6.03;3.65;;;;;;;6.38;49.75;94983.78;2062667;28;20202;-58
2023/03/07 15:07:34;;;;;;;8.52;3.83;;;;;;;6.48;49.53;94968.56;2062016;28;20265;-58
2023/03/07 15:08:37;;;;;;;10.00;4.63;;;;;;;6.70;48.83;94975.13;2062495;28;20210;-58
2023/03/07 15:09:38;;;;;;;9.00;3.95;;;;;;;6.43;49.32;94970.56;2062162;28;20271;-58
2023/03/07 15:10:42;;;;;;;9.50;4.13;;;;;;;6.11;50.06;94980.09;2063760;28;20194;-59
2023/03/07 15:11:54;;;;;;;8.60;4.18;;;;;;;6.00;50.34;94965.13;2065753;28;20582;-58
2023/03/07 15:12:56;;;;;;;10.98;4.10;;;;;;;5.70;51.22;94982.16;2064411;28;20222;-58
2023/03/07 15:14:00;;;;;;;10.35;4.85;;;;;;;5.37;51.63;94980.38;2067153;28;20717;-58
2023/03/07 15:15:03;;;;;;;8.05;3.60;;;;;;;4.99;52.57;94982.28;2065809;28;21052;-58
2023/03/07 15:16:11;;;;;;;6.85;4.03;;;;;;;4.97;52.90;94987.53;2063763;28;20870;-58
2023/03/07 15:17:33;;;;;;;7.20;3.75;;;;;;;5.25;51.94;94978.41;2061525;28;20202;-58
2023/03/07 15:18:41;;;;;;;7.47;4.10;;;;;;;4.92;52.35;94986.09;2061076;28;20206;-58
2023/03/07 15:19:46;;;;;;;8.73;3.92;;;;;;;5.19;52.42;94992.50;2061619;28;20205;-58
2023/03/07 15:20:50;;;;;;;8.50;5.00;;;;;;;5.30;51.68;94976.41;2077175;28;20197;-57
2023/03/07 15:21:56;;;;;;;9.35;5.03;;;;;;;5.90;51.72;94967.31;2079644;28;20204;-58
2023/03/07 15:23:04;;;;;;;10.95;4.95;;;;;;;5.92;50.91;94983.63;2069900;28;20554;-58
2023/03/07 15:24:16;;;;;;;7.82;4.38;;;;;;;5.87;51.08;94978.69;2059790;28;20207;-58
2023/03/07 15:25:20;;;;;;;6.30;3.75;;;;;;;5.88;50.64;94982.94;2058710;28;20195;-58
2023/03/07 15:26:27;;;;;;;7.70;4.10;;;;;;;6.41;50.40;94985.34;2063928;28;20225;-58
2023/03/07 15:27:30;;;;;;;7.47;3.70;;;;;;;6.35;49.94;94986.53;2063220;28;20242;-58
2023/03/07 15:28:34;;;;;;;9.45;4.47;;;;;;;6.48;49.50;94986.69;2063972;28;20227;-58
2023/03/07 15:29:38;;;;;;;10.77;5.10;;;;;;;6.48;49.64;94971.13;2063840;28;20198;-58
2023/03/07 15:30:39;;;;;;;7.40;4.35;;;;;;;6.69;49.25;94984.69;2062345;28;20206;-58
2023/03/07 15:32:00;;;;;;;11.10;5.18;;;;;;;6.41;49.90;94976.75;2060081;28;20528;-58
2023/03/07 15:33:23;;;;;;;7.00;4.20;;;;;;;5.87;50.70;94983.84;2062989;28;20241;-58
2023/03/07 15:34:32;;;;;;;9.07;4.10;;;;;;;5.35;51.37;94989.97;2064557;28;20200;-58
2023/03/07 15:35:33;;;;;;;7.95;4.22;;;;;;;5.36;52.02;94977.88;2064400;28;20210;-58
2023/03/07 15:36:36;;;;;;;8.40;4.07;;;;;;;5.39;52.03;94973.34;2064850;28;20694;-58
2023/03/07 15:37:51;;;;;;;10.05;4.60;;;;;;;5.75;51.47;94984.50;2061650;28;20701;-58
2023/03/07 15:39:22;;;;;;;11.02;4.22;;;;;;;5.64;51.37;94979.88;2063962;28;20198;-58
2023/03/07 15:40:32;;;;;;;8.88;3.92;;;;;;;5.48;51.55;94963.47;2064904;28;20207;-58
2023/03/07 15:41:36;;;;;;;7.15;3.80;;;;;;;5.72;51.22;94974.31;2064365;28;20195;-59
2023/03/07 15:42:56;;;;;;;12.38;4.45;;;;;;;6.09;50.71;94984.53;2063939;28;20234;-58
2023/03/07 15:44:10;;;;;;;8.68;4.18;;;;;;;6.06;50.66;94985.53;2059901;28;20682;-58
2023/03/07 15:45:38;;;;;;;8.35;4.63;;;;;;;6.17;50.53;94988.38;2062760;28;20203;-58
2023/03/07 15:46:44;;;;;;;9.20;3.95;;;;;;;6.56;49.83;94977.66;2062106;28;20250;-58
2023/03/07 15:47:46;;;;;;;5.88;4.00;;;;;;;6.24;49.70;94975.91;2061152;28;20227;-58
2023/03/07 15:48:52;;;;;;;9.80;4.65;;;;;;;6.23;49.93;94987.19;2064518;28;20206;-58
2023/03/07 15:50:05;;;;;;;8.88;4.60;;;;;;;6.61;49.72;94979.06;2064788;28;20193;-58
2023/03/07 15:51:33;;;;;;;8.10;4.40;;;;;;;6.69;49.50;94963.94;2063988;28;20262;-58
2023/03/07 15:52:37;;;;;;;7.80;4.75;;;;;;;6.01;50.32;94974.56;2058802;28;20771;-58
2023/03/07 15:53:40;;;;;;;7.55;4.10;;;;;;;5.77;51.63;94974.91;2063950;28;20252;-58
2023/03/07 15:54:42;;;;;;;8.30;4.60;;;;;;;6.05;51.12;94982.06;2065414;28;20206;-58
2023/03/07 15:55:54;;;;;;;16.17;4.88;;;;;;;6.04;50.84;94977.84;2063789;28;20218;-58
2023/03/07 15:57:00;;;;;;;10.07;4.10;;;;;;;5.47;51.74;94977.31;2062429;28;20209;-58
2023/03/07 15:58:08;;;;;;;8.70;4.32;;;;;;;5.14;53.00;94984.13;2072968;28;20232;-58
2023/03/07 15:59:28;;;;;;;11.90;6.22;;;;;;;5.33;52.88;94970.25;2074542;28;20367;-58
2023/03/07 16:00:33;;;;;;;7.22;4.10;;;;;;;5.11;52.79;94983.44;2061518;28;20206;-58
2023/03/07 16:01:35;;;;;;;7.57;3.97;;;;;;;5.34;52.76;94969.34;2061802;28;20195;-58
2023/03/07 16:02:41;;;;;;;7.40;4.55;;;;;;;5.27;53.30;94980.91;2061027;28;20288;-58
2023/03/07 16:03:55;;;;;;;11.70;5.10;;;;;;;4.87;53.83;94976.78;2062550;28;20201;-58
2023/03/07 16:05:04;;;;;;;8.77;4.80;;;;;;;4.97;53.99;94984.13;2063108;28;20197;-59
2023/03/07 16:06:28;;;;;;;8.65;4.20;;;;;;;4.73;54.18;94979.22;2064076;28;21100;-58
2023/03/07 16:07:30;;;;;;;8.00;4.50;;;;;;;4.73;54.93;94990.38;2064317;28;20226;-58
2023/03/07 16:08:32;;;;;;;11.35;4.85;;;;;;;4.71;54.84;94989.66;2065044;28;20226;-58
2023/03/07 16:09:33;;;;;;;10.35;5.05;;;;;;;4.76;55.34;94983.41;2065356;28;20214;-58
2023/03/07 16:10:34;;;;;;;10.85;5.00;;;;;;;4.69;54.83;94981.13;2060250;28;20236;-58
2023/03/07 16:11:36;;;;;;;9.07;4.90;;;;;;;4.42;55.27;94931.56;2058802;28;20194;-58
2023/03/07 16:12:44;;;;;;;13.15;5.13;;;;;;;4.68;55.05;94982.00;2061753;28;20313;-58
2023/03/07 16:13:47;;;;;;;11.15;4.88;;;;;;;4.80;55.38;94969.41;2063250;28;20951;-58
2023/03/07 16:14:51;;;;;;;9.13;5.13;;;;;;;4.76;55.03;94993.75;2064910;28;20203;-58
2023/03/07 16:16:04;;;;;;;8.32;4.30;;;;;;;4.84;54.47;94986.47;2063158;28;20202;-58
2023/03/07 16:17:18;;;;;;;9.93;4.70;;;;;;;4.69;54.63;94981.13;2060660;28;20266;-57
2023/03/07 16:18:26;;;;;;;9.43;4.55;;;;;;;4.73;55.02;94987.81;2063124;28;20226;-58
2023/03/07 16:19:28;;;;;;;10.32;5.20;;;;;;;4.81;55.09;94992.63;2064620;28;20590;-58
2023/03/07 16:20:30;;;;;;;8.88;5.40;;;;;;;4.66;55.24;94990.75;2064158;28;20850;-58
2023/03/07 16:21:31;;;;;;;11.18;5.93;;;;;;;4.73;55.19;94989.56;2064625;28;20191;-58
2023/03/07 16:22:33;;;;;;;13.68;5.20;;;;;;;5.22;54.43;94987.16;2061971;28;20254;-58
2023/03/07 16:23:34;;;;;;;11.18;5.10;;;;;;;5.31;53.53;94987.63;2076141;28;20272;-58
2023/03/07 16:24:36;;;;;;;9.75;4.93;;;;;;;5.43;53.60;94991.34;2075798;28;20209;-58
2023/03/07 16:25:37;;;;;;;12.90;4.32;;;;;;;5.56;53.10;94980.28;2063045;28;20233;-58
2023/03/07 16:26:41;;;;;;;11.82;5.57;;;;;;;5.81;52.36;94973.81;2062845;28;20206;-58
2023/03/07 16:27:47;;;;;;;9.23;5.22;;;;;;;5.94;52.01;94991.31;2063404;28;20239;-58
2023/03/07 16:28:50;;;;;;;12.27;5.28;;;;;;;5.97;52.29;94978.22;2079357;28;20248;-58
2023/03/07 16:29:52;;;;;;;9.43;5.00;;;;;;;5.96;51.97;94985.13;2075485;28;20202;-58
2023/03/07 16:30:54;;;;;;;7.78;5.00;;;;;;;5.86;52.29;94977.00;2060890;28;20718;-58